createdAt,value
2018-05-26T00:00:02.991Z,96512.83
2018-05-26T00:02:30.541Z,96513.78
2018-05-26T00:04:58.141Z,96511.47
2018-05-26T00:07:25.799Z,96513.47
2018-05-26T00:12:27.348Z,96519.17
2018-05-26T00:14:54.912Z,96525.02
2018-05-26T00:17:22.468Z,96523.05
2018-05-26T00:19:50.045Z,96521.58
2018-05-26T00:22:18.531Z,96519.31
2018-05-26T00:24:46.141Z,96523.19
2018-05-26T00:27:13.736Z,96506.70
2018-05-26T00:29:41.320Z,96515.73
2018-05-26T00:32:08.893Z,96512.67
2018-05-26T00:34:36.455Z,96515.41
2018-05-26T00:37:04.043Z,96515.90
2018-05-26T00:39:31.708Z,96510.34
2018-05-26T00:41:59.419Z,96516.90
2018-05-26T00:44:27.049Z,96509.53
2018-05-26T00:46:54.649Z,96510.97
2018-05-26T00:49:22.211Z,96510.75
2018-05-26T00:51:49.784Z,96509.81
2018-05-26T00:54:17.364Z,96510.52
2018-05-26T00:56:44.897Z,96509.58
2018-05-26T00:59:12.447Z,96514.37
2018-05-26T01:01:40.036Z,96512.93
2018-05-26T01:04:07.629Z,96515.75
2018-05-26T01:06:35.203Z,96510.48
2018-05-26T01:09:02.823Z,96511.28
2018-05-26T01:11:30.416Z,96508.86
2018-05-26T01:13:58.017Z,96513.41
2018-05-26T01:16:25.572Z,96510.48
2018-05-26T01:18:53.161Z,96510.02
2018-05-26T01:21:20.724Z,96516.88
2018-05-26T01:23:48.305Z,96518.02
2018-05-26T01:26:15.873Z,96510.72
2018-05-26T01:28:43.362Z,96510.30
2018-05-26T01:31:11.090Z,96510.23
2018-05-26T01:33:38.629Z,96516.11
2018-05-26T01:36:06.214Z,96522.84
2018-05-26T01:38:33.767Z,96515.59
2018-05-26T01:41:01.340Z,96520.20
2018-05-26T01:43:28.922Z,96515.65
2018-05-26T01:45:56.531Z,96516.88
2018-05-26T01:48:24.119Z,96516.02
2018-05-26T01:50:51.692Z,96513.29
2018-05-26T01:53:19.255Z,96518.02
2018-05-26T01:55:46.963Z,96513.67
2018-05-26T01:58:14.572Z,96508.51
2018-05-26T02:00:42.143Z,96508.53
2018-05-26T02:05:41.836Z,96500.77
2018-05-26T02:08:09.386Z,96498.73
2018-05-26T02:10:36.967Z,96501.13
2018-05-26T02:13:04.523Z,96503.87
2018-05-26T02:15:32.793Z,96497.31
2018-05-26T02:18:00.365Z,96503.45
2018-05-26T02:20:28.109Z,96504.49
2018-05-26T02:22:55.673Z,96501.75
2018-05-26T02:25:23.373Z,96508.05
2018-05-26T02:27:50.872Z,96500.09
2018-05-26T02:30:18.424Z,96504.45
2018-05-26T02:32:45.928Z,96503.72
2018-05-26T02:35:13.408Z,96504.13
2018-05-26T02:37:40.881Z,96501.21
2018-05-26T02:40:08.409Z,96500.60
2018-05-26T02:42:35.941Z,96506.70
2018-05-26T02:45:03.476Z,96505.82
2018-05-26T02:47:31.076Z,96507.61
2018-05-26T02:49:58.621Z,96505.02
2018-05-26T02:52:26.165Z,96506.73
2018-05-26T02:54:53.721Z,96505.66
2018-05-26T02:57:21.279Z,96509.93
2018-05-26T02:59:48.863Z,96503.43
2018-05-26T03:02:16.428Z,96507.50
2018-05-26T03:04:49.424Z,96503.84
2018-05-26T03:07:22.351Z,96499.55
2018-05-26T03:09:55.458Z,96506.00
2018-05-26T03:12:28.622Z,96506.62
2018-05-26T03:14:55.645Z,96508.45
2018-05-26T03:17:28.734Z,96510.89
2018-05-26T03:19:56.309Z,96508.78
2018-05-26T03:22:23.852Z,96508.52
2018-05-26T03:24:51.406Z,96512.51
2018-05-26T03:27:18.964Z,96521.91
2018-05-26T03:29:46.643Z,96520.09
2018-05-26T03:32:14.189Z,96520.83
2018-05-26T03:34:41.741Z,96518.72
2018-05-26T03:37:09.336Z,96517.98
2018-05-26T03:39:36.904Z,96524.11
2018-05-26T03:42:04.466Z,96530.61
2018-05-26T03:44:32.059Z,96530.08
2018-05-26T03:46:59.599Z,96532.11
2018-05-26T03:49:27.139Z,96532.98
2018-05-26T03:51:54.697Z,96536.58
2018-05-26T03:54:22.239Z,96532.05
2018-05-26T03:57:01.603Z,96536.25
2018-05-26T03:59:41.000Z,96532.84
2018-05-26T04:02:08.564Z,96531.78
2018-05-26T04:04:36.136Z,96533.98
2018-05-26T04:07:03.685Z,96533.52
2018-05-26T04:09:31.411Z,96531.15
2018-05-26T04:11:58.972Z,96535.56
2018-05-26T04:14:26.565Z,96535.08
2018-05-26T04:16:54.109Z,96538.48
2018-05-26T04:19:21.700Z,96537.04
2018-05-26T04:21:49.250Z,96539.16
2018-05-26T04:24:16.831Z,96544.05
2018-05-26T04:26:44.407Z,96541.92
2018-05-26T04:29:12.543Z,96546.35
2018-05-26T04:31:40.215Z,96551.09
2018-05-26T04:34:07.797Z,96539.95
2018-05-26T04:36:35.356Z,96541.76
2018-05-26T04:39:02.973Z,96542.16
2018-05-26T04:41:30.865Z,96540.59
2018-05-26T04:43:58.431Z,96543.84
2018-05-26T04:46:26.015Z,96548.39
2018-05-26T04:48:53.612Z,96548.08
2018-05-26T04:51:21.171Z,96541.05
2018-05-26T04:53:48.762Z,96551.44
2018-05-26T04:56:16.337Z,96554.73
2018-05-26T04:58:43.897Z,96552.56
2018-05-26T05:01:11.498Z,96553.03
2018-05-26T05:03:39.069Z,96562.64
2018-05-26T05:06:06.672Z,96560.12
2018-05-26T05:08:34.264Z,96559.88
2018-05-26T05:11:02.771Z,96561.62
2018-05-26T05:13:30.390Z,96557.38
2018-05-26T05:15:58.020Z,96563.14
2018-05-26T05:18:25.612Z,96560.48
2018-05-26T05:20:53.213Z,96566.27
2018-05-26T05:23:20.862Z,96564.36
2018-05-26T05:25:48.506Z,96561.58
2018-05-26T05:28:16.072Z,96554.33
2018-05-26T05:30:43.669Z,96562.42
2018-05-26T05:33:11.238Z,96567.19
2018-05-26T05:35:38.852Z,96557.95
2018-05-26T05:38:06.438Z,96561.52
2018-05-26T05:40:34.017Z,96559.97
2018-05-26T05:43:01.633Z,96557.31
2018-05-26T05:45:29.199Z,96561.56
2018-05-26T05:47:57.712Z,96569.06
2018-05-26T05:50:29.301Z,96566.39
2018-05-26T05:52:57.177Z,96568.24
2018-05-26T05:55:24.741Z,96573.91
2018-05-26T05:57:52.362Z,96570.15
2018-05-26T06:00:19.964Z,96569.93
2018-05-26T06:02:47.536Z,96572.71
2018-05-26T06:05:15.275Z,96584.80
2018-05-26T06:07:42.861Z,96579.80
2018-05-26T06:10:10.482Z,96578.50
2018-05-26T06:12:38.105Z,96576.54
2018-05-26T06:15:05.689Z,96583.64
2018-05-26T06:17:33.283Z,96584.47
2018-05-26T06:20:00.887Z,96583.88
2018-05-26T06:22:28.482Z,96578.69
2018-05-26T06:24:56.104Z,96581.12
2018-05-26T06:27:23.734Z,96579.47
2018-05-26T06:29:51.296Z,96584.94
2018-05-26T06:32:18.889Z,96580.23
2018-05-26T06:34:46.504Z,96583.69
2018-05-26T06:37:14.083Z,96581.17
2018-05-26T06:39:41.700Z,96585.31
2018-05-26T06:42:09.292Z,96584.25
2018-05-26T06:44:36.954Z,96580.44
2018-05-26T06:47:04.578Z,96584.79
2018-05-26T06:49:32.256Z,96578.72
2018-05-26T06:51:59.855Z,96579.36
2018-05-26T06:54:27.416Z,96582.90
2018-05-26T06:56:55.046Z,96583.12
2018-05-26T06:59:22.609Z,96580.23
2018-05-26T07:01:50.161Z,96577.70
2018-05-26T07:04:17.780Z,96572.66
2018-05-26T07:06:45.368Z,96569.90
2018-05-26T07:09:12.991Z,96574.07
2018-05-26T07:11:40.569Z,96570.47
2018-05-26T07:14:08.156Z,96569.92
2018-05-26T07:16:35.827Z,96567.59
2018-05-26T07:19:03.504Z,96570.71
2018-05-26T07:21:31.258Z,96569.54
2018-05-26T07:23:58.857Z,96569.84
2018-05-26T07:26:26.492Z,96566.56
2018-05-26T07:28:54.161Z,96566.70
2018-05-26T07:31:25.333Z,96562.42
2018-05-26T07:33:59.356Z,96568.40
2018-05-26T07:36:27.103Z,96568.48
2018-05-26T07:39:01.718Z,96573.85
2018-05-26T07:41:29.302Z,96568.33
2018-05-26T07:43:59.633Z,96563.81
2018-05-26T07:46:27.336Z,96572.11
2018-05-26T07:48:54.947Z,96574.56
2018-05-26T07:51:22.516Z,96576.78
2018-05-26T07:53:50.163Z,96583.45
2018-05-26T07:56:17.849Z,96582.44
2018-05-26T07:58:45.349Z,96575.38
2018-05-26T08:01:13.299Z,96574.93
2018-05-26T08:03:44.878Z,96575.64
2018-05-26T08:06:12.493Z,96583.86
2018-05-26T08:08:40.104Z,96583.77
2018-05-26T08:11:07.870Z,96578.64
2018-05-26T08:13:35.467Z,96577.15
2018-05-26T08:16:03.040Z,96580.59
2018-05-26T08:18:30.699Z,96575.69
2018-05-26T08:20:58.309Z,96578.33
2018-05-26T08:23:25.929Z,96579.19
2018-05-26T08:25:53.567Z,96575.88
2018-05-26T08:28:21.194Z,96576.16
2018-05-26T08:30:48.847Z,96576.20
2018-05-26T08:33:16.414Z,96573.27
2018-05-26T08:35:44.111Z,96579.91
2018-05-26T08:38:11.697Z,96579.22
2018-05-26T08:40:39.316Z,96583.99
2018-05-26T08:43:06.881Z,96583.49
2018-05-26T08:45:34.513Z,96574.20
2018-05-26T08:48:02.113Z,96579.39
2018-05-26T08:50:29.773Z,96578.14
2018-05-26T08:55:31.219Z,96574.95
2018-05-26T08:57:58.945Z,96576.42
2018-05-26T09:00:26.557Z,96580.70
2018-05-26T09:02:54.138Z,96574.95
2018-05-26T09:05:21.779Z,96583.41
2018-05-26T09:07:49.413Z,96578.23
2018-05-26T09:10:16.997Z,96584.57
2018-05-26T09:12:44.670Z,96577.20
2018-05-26T09:15:18.405Z,96580.24
2018-05-26T09:17:46.021Z,96578.64
2018-05-26T09:20:13.595Z,96582.39
2018-05-26T09:22:41.253Z,96582.79
2018-05-26T09:25:08.987Z,96588.91
2018-05-26T09:27:52.915Z,96588.50
2018-05-26T09:30:20.673Z,96592.59
2018-05-26T09:32:49.282Z,96589.20
2018-05-26T09:35:17.011Z,96594.81
2018-05-26T09:37:44.680Z,96592.60
2018-05-26T09:40:13.097Z,96588.86
2018-05-26T09:42:40.766Z,96595.34
2018-05-26T09:45:08.961Z,96594.07
2018-05-26T09:47:36.699Z,96599.34
2018-05-26T09:50:04.921Z,96592.39
2018-05-26T09:52:34.707Z,96592.92
2018-05-26T09:55:02.383Z,96599.28
2018-05-26T09:57:34.218Z,96588.87
2018-05-26T10:00:01.837Z,96597.42
2018-05-26T10:02:29.456Z,96593.71
2018-05-26T10:04:57.091Z,96601.51
2018-05-26T10:07:25.488Z,96597.89
2018-05-26T10:09:54.656Z,96599.37
2018-05-26T10:12:22.642Z,96598.70
2018-05-26T10:14:50.629Z,96588.85
2018-05-26T10:17:18.360Z,96596.09
2018-05-26T10:19:46.058Z,96592.86
2018-05-26T10:24:48.332Z,96592.27
2018-05-26T10:27:15.938Z,96595.70
2018-05-26T10:29:44.392Z,96591.50
2018-05-26T10:32:13.086Z,96596.88
2018-05-26T10:34:40.684Z,96598.88
2018-05-26T10:37:08.399Z,96603.87
2018-05-26T10:39:36.958Z,96591.10
2018-05-26T10:42:04.651Z,96593.32
2018-05-26T10:44:32.420Z,96589.81
2018-05-26T10:47:00.009Z,96589.20
2018-05-26T10:49:27.827Z,96586.92
2018-05-26T10:51:55.808Z,96589.14
2018-05-26T10:54:23.480Z,96590.67
2018-05-26T10:56:51.111Z,96592.81
2018-05-26T10:59:19.761Z,96593.11
2018-05-26T11:01:47.645Z,96596.38
2018-05-26T11:04:15.304Z,96597.73
2018-05-26T11:06:48.609Z,96600.30
2018-05-26T11:09:17.637Z,96598.34
2018-05-26T11:11:45.381Z,96598.23
2018-05-26T11:14:13.054Z,96596.55
2018-05-26T11:16:41.940Z,96584.77
2018-05-26T11:19:09.960Z,96591.10
2018-05-26T11:21:37.682Z,96589.58
2018-05-26T11:24:06.560Z,96584.50
2018-05-26T11:26:35.460Z,96584.60
2018-05-26T11:29:03.076Z,96588.56
2018-05-26T11:31:30.874Z,96594.20
2018-05-26T11:33:58.587Z,96590.94
2018-05-26T11:36:29.311Z,96581.63
2018-05-26T11:38:56.990Z,96589.09
2018-05-26T11:41:24.698Z,96583.47
2018-05-26T11:43:54.303Z,96584.10
2018-05-26T11:46:22.109Z,96590.14
2018-05-26T11:48:50.510Z,96596.08
2018-05-26T11:51:19.646Z,96595.64
2018-05-26T11:53:50.196Z,96588.36
2018-05-26T11:56:22.772Z,96592.66
2018-05-26T11:58:50.441Z,96589.21
2018-05-26T12:01:19.160Z,96595.70
2018-05-26T12:03:47.759Z,96596.62
2018-05-26T12:06:15.502Z,96596.34
2018-05-26T12:08:44.141Z,96592.66
2018-05-26T12:11:23.558Z,96588.06
2018-05-26T12:13:51.286Z,96592.88
2018-05-26T12:16:20.640Z,96585.34
2018-05-26T12:18:49.799Z,96584.84
2018-05-26T12:21:18.790Z,96586.86
2018-05-26T12:23:47.761Z,96590.15
2018-05-26T12:26:16.499Z,96581.06
2018-05-26T12:28:49.967Z,96570.94
2018-05-26T12:31:21.131Z,96572.19
2018-05-26T12:36:37.358Z,96572.77
2018-05-26T12:39:30.903Z,96567.33
2018-05-26T12:42:01.588Z,96565.27
2018-05-26T12:44:31.516Z,96562.38
2018-05-26T12:47:03.581Z,96553.53
2018-05-26T12:49:33.399Z,96547.52
2018-05-26T12:52:18.574Z,96545.06
2018-05-26T12:57:28.223Z,96535.59
2018-05-26T13:00:04.376Z,96545.67
2018-05-26T13:02:32.171Z,96550.59
2018-05-26T13:05:10.115Z,96553.53
2018-05-26T13:07:37.951Z,96550.53
2018-05-26T13:10:08.415Z,96558.89
2018-05-26T13:12:43.867Z,96555.22
2018-05-26T13:17:53.619Z,96546.98
2018-05-26T13:20:22.043Z,96543.53
2018-05-26T13:23:05.448Z,96543.48
2018-05-26T13:25:34.275Z,96534.79
2018-05-26T13:28:05.295Z,96546.72
2018-05-26T13:30:36.339Z,96539.97
2018-05-26T13:33:07.922Z,96542.14
2018-05-26T13:35:40.716Z,96542.52
2018-05-26T13:38:08.868Z,96539.66
2018-05-26T13:40:40.748Z,96541.47
2018-05-26T13:43:12.893Z,96540.70
2018-05-26T13:45:40.626Z,96540.78
2018-05-26T13:48:21.128Z,96539.56
2018-05-26T13:50:52.605Z,96534.17
2018-05-26T13:53:24.202Z,96530.91
2018-05-26T13:55:59.346Z,96527.45
2018-05-26T13:58:29.166Z,96522.91
2018-05-26T14:00:57.475Z,96532.16
2018-05-26T14:03:25.708Z,96530.22
2018-05-26T14:05:58.943Z,96525.25
2018-05-26T14:08:27.433Z,96519.16
2018-05-26T14:10:56.771Z,96508.56
2018-05-26T14:13:27.634Z,96509.64
2018-05-26T14:15:56.643Z,96512.23
2018-05-26T14:18:24.362Z,96508.64
2018-05-26T14:20:59.006Z,96516.22
2018-05-26T14:23:28.133Z,96516.19
2018-05-26T14:26:01.761Z,96508.65
2018-05-26T14:28:37.391Z,96507.91
2018-05-26T14:31:09.656Z,96503.36
2018-05-26T14:33:39.255Z,96498.48
2018-05-26T14:36:07.860Z,96495.30
2018-05-26T14:38:38.060Z,96489.81
2018-05-26T14:41:07.678Z,96492.77
2018-05-26T14:43:42.642Z,96481.73
2018-05-26T14:46:11.863Z,96487.06
2018-05-26T14:48:46.114Z,96486.67
2018-05-26T14:53:56.040Z,96484.86
2018-05-26T14:56:27.331Z,96479.28
2018-05-26T14:58:57.090Z,96482.59
2018-05-26T15:01:31.050Z,96482.25
2018-05-26T15:04:06.070Z,96481.83
2018-05-26T15:06:43.520Z,96478.47
2018-05-26T15:09:15.521Z,96478.11
2018-05-26T15:11:50.732Z,96476.65
2018-05-26T15:14:18.504Z,96480.12
2018-05-26T15:16:52.461Z,96477.03
2018-05-26T15:19:27.090Z,96479.55
2018-05-26T15:21:56.858Z,96480.56
2018-05-26T15:24:32.281Z,96491.23
2018-05-26T15:27:02.401Z,96483.44
2018-05-26T15:29:34.189Z,96484.80
2018-05-26T15:32:09.736Z,96484.20
2018-05-26T15:34:41.483Z,96478.89
2018-05-26T15:37:16.437Z,96477.33
2018-05-26T15:46:36.601Z,96474.25
2018-05-26T15:49:05.288Z,96473.11
2018-05-26T15:54:11.058Z,96471.59
2018-05-26T15:56:44.309Z,96472.19
2018-05-26T15:59:16.098Z,96475.55
2018-05-26T16:01:44.741Z,96462.41
2018-05-26T16:04:13.459Z,96474.61
2018-05-26T16:06:44.275Z,96470.75
2018-05-26T16:09:24.217Z,96483.98
2018-05-26T16:14:46.136Z,96490.09
2018-05-26T16:17:20.059Z,96486.67
2018-05-26T16:19:51.607Z,96489.02
2018-05-26T16:22:19.304Z,96490.52
2018-05-26T16:24:48.930Z,96492.35
2018-05-26T16:27:29.474Z,96493.11
2018-05-26T16:29:58.919Z,96484.52
2018-05-26T16:32:26.545Z,96484.05
2018-05-26T16:34:54.147Z,96481.41
2018-05-26T16:37:21.897Z,96488.04
2018-05-26T16:39:54.693Z,96487.44
2018-05-26T16:42:29.271Z,96485.20
2018-05-26T16:45:03.093Z,96483.70
2018-05-26T16:47:30.782Z,96479.87
2018-05-26T16:50:01.072Z,96482.13
2018-05-26T16:52:31.754Z,96477.95
2018-05-26T16:55:02.956Z,96475.06
2018-05-26T16:57:30.639Z,96475.73
2018-05-26T16:59:58.341Z,96473.01
2018-05-26T17:02:26.025Z,96473.82
2018-05-26T17:05:00.941Z,96482.38
2018-05-26T17:07:31.279Z,96477.96
2018-05-26T17:10:00.570Z,96472.80
2018-05-26T17:12:28.239Z,96474.47
2018-05-26T17:14:57.516Z,96474.15
2018-05-26T17:20:16.133Z,96481.45
2018-05-26T17:22:44.961Z,96481.36
2018-05-26T17:25:14.742Z,96479.63
2018-05-26T17:27:43.207Z,96482.60
2018-05-26T17:30:12.788Z,96479.69
2018-05-26T17:32:41.267Z,96483.66
2018-05-26T17:35:13.110Z,96473.13
2018-05-26T17:40:17.841Z,96480.42
2018-05-26T17:42:46.560Z,96482.70
2018-05-26T17:45:15.150Z,96484.00
2018-05-26T17:47:44.160Z,96479.11
2018-05-26T17:50:12.596Z,96482.67
2018-05-26T17:52:40.344Z,96486.05
2018-05-26T17:55:11.277Z,96480.41
2018-05-26T17:57:40.927Z,96486.38
2018-05-26T18:00:08.723Z,96486.38
2018-05-26T18:02:37.232Z,96489.95
2018-05-26T18:05:04.988Z,96486.33
2018-05-26T18:07:34.534Z,96492.59
2018-05-26T18:10:03.408Z,96495.02
2018-05-26T18:12:34.631Z,96497.95
2018-05-26T18:15:02.361Z,96502.08
2018-05-26T18:17:33.374Z,96503.56
2018-05-26T18:20:01.171Z,96503.84
2018-05-26T18:22:29.167Z,96500.03
2018-05-26T18:24:57.510Z,96496.58
2018-05-26T18:27:28.245Z,96497.64
2018-05-26T18:29:56.721Z,96496.39
2018-05-26T18:32:24.574Z,96496.04
2018-05-26T18:34:53.129Z,96496.81
2018-05-26T18:37:22.249Z,96493.09
2018-05-26T18:39:49.863Z,96491.88
2018-05-26T18:42:19.305Z,96501.94
2018-05-26T18:44:46.982Z,96509.57
2018-05-26T18:47:16.417Z,96510.83
2018-05-26T18:49:44.750Z,96516.83
2018-05-26T18:52:12.437Z,96515.17
2018-05-26T18:54:40.320Z,96522.05
2018-05-26T18:57:16.125Z,96534.98
2018-05-26T18:59:43.925Z,96529.06
2018-05-26T19:02:11.767Z,96534.28
2018-05-26T19:04:40.429Z,96528.87
2018-05-26T19:07:08.108Z,96533.87
2018-05-26T19:09:35.887Z,96534.22
2018-05-26T19:12:03.610Z,96536.70
2018-05-26T19:14:31.291Z,96542.99
2018-05-26T19:16:59.072Z,96538.05
2018-05-26T19:19:26.849Z,96539.99
2018-05-26T19:21:55.294Z,96544.27
2018-05-26T19:24:23.988Z,96546.22
2018-05-26T19:26:51.774Z,96551.89
2018-05-26T19:29:19.741Z,96555.41
2018-05-26T19:31:48.976Z,96553.02
2018-05-26T19:34:17.500Z,96554.77
2018-05-26T19:36:45.591Z,96556.00
2018-05-26T19:39:15.114Z,96545.73
2018-05-26T19:41:42.798Z,96565.63
2018-05-26T19:44:11.752Z,96569.38
2018-05-26T19:46:39.411Z,96568.25
2018-05-26T19:49:07.062Z,96572.88
2018-05-26T19:51:35.962Z,96573.11
2018-05-26T19:54:03.718Z,96576.47
2018-05-26T19:56:32.143Z,96570.13
2018-05-26T19:59:00.678Z,96572.62
2018-05-26T20:01:28.664Z,96576.80
2018-05-26T20:03:56.323Z,96584.14
2018-05-26T20:06:23.995Z,96582.12
2018-05-26T20:08:51.730Z,96587.84
2018-05-26T20:11:20.152Z,96586.30
2018-05-26T20:13:48.868Z,96588.05
2018-05-26T20:16:16.697Z,96586.06
2018-05-26T20:18:44.448Z,96587.42
2018-05-26T20:21:13.578Z,96588.64
2018-05-26T20:23:41.257Z,96589.67
2018-05-26T20:26:08.974Z,96589.70
2018-05-26T20:28:36.864Z,96588.78
2018-05-26T20:31:04.655Z,96588.91
2018-05-26T20:33:33.801Z,96598.20
2018-05-26T20:36:01.498Z,96597.30
2018-05-26T20:38:29.310Z,96600.22
2018-05-26T20:40:57.031Z,96598.77
2018-05-26T20:43:26.462Z,96599.32
2018-05-26T20:45:54.289Z,96597.61
2018-05-26T20:48:22.597Z,96595.27
2018-05-26T20:50:50.265Z,96599.02
2018-05-26T20:53:18.480Z,96595.35
2018-05-26T20:55:46.140Z,96593.08
2018-05-26T20:58:14.634Z,96596.35
2018-05-26T21:00:42.294Z,96592.61
2018-05-26T21:03:11.085Z,96592.38
2018-05-26T21:05:42.540Z,96597.44
2018-05-26T21:08:11.243Z,96599.14
2018-05-26T21:10:38.945Z,96601.74
2018-05-26T21:13:07.684Z,96607.48
2018-05-26T21:15:35.373Z,96603.34
2018-05-26T21:18:02.931Z,96610.64
2018-05-26T21:20:31.873Z,96618.17
2018-05-26T21:23:00.866Z,96614.28
2018-05-26T21:25:28.666Z,96614.22
2018-05-26T21:27:56.475Z,96608.40
2018-05-26T21:30:24.263Z,96603.92
2018-05-26T21:32:52.070Z,96604.48
2018-05-26T21:35:21.346Z,96602.47
2018-05-26T21:37:50.078Z,96605.31
2018-05-26T21:40:17.875Z,96609.16
2018-05-26T21:42:45.757Z,96610.88
2018-05-26T21:45:13.386Z,96608.59
2018-05-26T21:47:40.977Z,96612.67
2018-05-26T21:50:10.002Z,96609.18
2018-05-26T21:52:37.949Z,96607.23
2018-05-26T21:55:06.626Z,96605.24
2018-05-26T21:57:34.834Z,96612.78
2018-05-26T22:00:02.608Z,96613.53
2018-05-26T22:02:30.813Z,96611.98
2018-05-26T22:04:58.584Z,96615.06
2018-05-26T22:07:28.400Z,96607.32
2018-05-26T22:09:56.059Z,96611.41
2018-05-26T22:12:23.803Z,96605.70
2018-05-26T22:14:51.518Z,96598.86
2018-05-26T22:17:20.826Z,96598.96
2018-05-26T22:19:48.490Z,96602.32
2018-05-26T22:22:16.043Z,96603.17
2018-05-26T22:24:43.694Z,96601.66
2018-05-26T22:27:11.870Z,96608.63
2018-05-26T22:29:39.640Z,96605.09
2018-05-26T22:32:07.877Z,96603.70
2018-05-26T22:34:35.629Z,96605.09
2018-05-26T22:37:03.307Z,96604.61
2018-05-26T22:39:31.002Z,96600.63
2018-05-26T22:41:58.717Z,96599.88
2018-05-26T22:44:26.410Z,96601.66
2018-05-26T22:46:54.094Z,96596.89
2018-05-26T22:49:22.135Z,96595.00
2018-05-26T22:54:24.560Z,96594.19
2018-05-26T22:56:52.201Z,96594.67
2018-05-26T22:59:19.966Z,96596.16
2018-05-26T23:01:47.647Z,96592.33
2018-05-26T23:04:15.270Z,96589.39
2018-05-26T23:06:42.908Z,96589.65
2018-05-26T23:09:11.001Z,96588.25
2018-05-26T23:11:38.669Z,96589.06
2018-05-26T23:14:06.340Z,96588.41
2018-05-26T23:16:33.853Z,96584.25
2018-05-26T23:19:01.450Z,96582.27
2018-05-26T23:21:29.008Z,96577.04
2018-05-26T23:23:56.647Z,96576.77
2018-05-26T23:26:24.475Z,96577.22
2018-05-26T23:28:52.168Z,96575.27
2018-05-26T23:31:19.932Z,96576.67
2018-05-26T23:33:47.588Z,96578.69
2018-05-26T23:36:15.206Z,96570.47
2018-05-26T23:38:42.948Z,96570.12
2018-05-26T23:41:11.378Z,96566.30
2018-05-26T23:43:38.976Z,96567.29
2018-05-26T23:46:07.759Z,96571.58
2018-05-26T23:48:35.611Z,96566.48
2018-05-26T23:51:03.185Z,96561.92
2018-05-26T23:53:31.362Z,96565.53
2018-05-26T23:55:59.036Z,96554.98
2018-05-26T23:58:26.776Z,96552.31
